Terminal Aerodrome Forecast
Issued by NWS Sioux Falls, SD

Home | Current Version | Previous Version | Graphics & Text | Print | Product List | Glossary Off
Versions: 1 2 3 4 5 6 7 8 9 10 11 12 13 14 15 16

000
FTUS43 KFSD 271129
TAFSUX
TAF
KSUX 271129Z 2712/2812 14006KT P6SM SKC
     FM271500 17011KT P6SM FEW250
     FM271800 17015G23KT P6SM SCT250
     FM272300 16016G24KT P6SM BKN100
     FM280400 15013G19KT 6SM SHRA BKN045
      TEMPO 2804/2808 4SM TSRA BKN035CB
     FM280900 17015G23KT P6SM OVC120=

USA.gov is the U.S. government's official web portal to all federal, state and local government web resources and services.